.
WxDataArchive / Data Records for 2009-08-14
2009-08-13 August 2009 2009-08-15

Data Records for Friday, 14 August 2009

Time	Temp	Chill	HIndex	Humid	Dewpt	 Wind 	HiWind	WindDir	Rain 	Barom 
-----	----	-----	------	-----	-----	------	------	-------	-----	----- 
00:00	66.6	66.6	66.6	81	60.6	0	3	68	0.00	30.122 
00:05	66.6	66.6	66.6	82	60.9	0	1	68	0.00	30.122 
00:10	66.8	66.8	66.8	81	60.8	0	1	68	0.00	30.122 
00:15	66.9	66.9	66.9	79	60.2	0	1	68	0.00	30.123 
00:20	66.9	66.9	66.9	79	60.2	0	0	---	0.00	30.123 
00:25	66.9	66.9	66.9	79	60.2	0	0	---	0.00	30.123 
00:30	66.8	66.8	66.8	79	60.1	0	0	---	0.00	30.121 
00:35	66.6	66.6	66.6	79	59.9	0	0	---	0.00	30.121 
00:40	66.3	66.3	66.3	79	59.6	0	0	---	0.00	30.121 
00:45	66.1	66.1	66.1	80	59.7	0	0	---	0.00	30.122 
00:50	66.0	66.0	66.0	81	60.0	0	0	---	0.00	30.122 
00:55	65.8	65.8	65.8	81	59.8	0	0	---	0.00	30.122 
01:00	65.6	65.6	65.6	82	59.9	0	0	---	0.00	30.124 
01:05	65.5	65.5	65.5	82	59.9	0	0	---	0.00	30.124 
01:10	65.3	65.3	65.3	83	60.0	0	0	---	0.00	30.124 
01:15	65.2	65.2	65.2	83	59.9	0	0	---	0.00	30.123 
01:20	65.0	65.0	65.0	84	60.0	0	0	---	0.00	30.123 
01:25	64.8	64.8	64.8	84	59.8	0	0	---	0.00	30.123 
01:30	64.7	64.7	64.7	84	59.7	0	0	---	0.00	30.123 
01:35	64.5	64.5	64.5	85	59.9	0	0	---	0.00	30.123 
01:40	64.3	64.3	64.3	85	59.7	0	0	---	0.00	30.123 
01:45	64.2	64.2	64.2	86	59.9	0	0	---	0.00	30.125 
01:50	64.0	64.0	64.0	86	59.7	0	0	---	0.00	30.125 
01:55	63.9	63.9	63.9	86	59.6	0	0	---	0.00	30.125 
02:00	63.9	63.9	63.9	87	59.9	0	0	---	0.00	30.124 
02:05	63.7	63.7	63.7	87	59.8	0	0	---	0.00	30.124 
02:10	63.7	63.7	63.7	87	59.8	0	0	---	0.00	30.124 
02:15	63.5	63.5	63.5	88	59.9	0	0	---	0.00	30.122 
02:20	63.4	63.4	63.4	88	59.8	0	0	---	0.00	30.122 
02:25	63.2	63.2	63.2	88	59.6	0	0	---	0.00	30.122 
02:30	63.1	63.1	63.1	88	59.5	0	0	---	0.00	30.123 
02:35	63.1	63.1	63.1	88	59.5	0	0	---	0.00	30.123 
02:40	62.9	62.9	62.9	88	59.3	0	0	---	0.00	30.123 
02:45	62.7	62.7	62.7	88	59.1	0	0	---	0.00	30.123 
02:50	62.7	62.7	62.7	89	59.4	0	0	---	0.00	30.123 
02:55	62.6	62.6	62.6	89	59.3	0	0	---	0.00	30.123 
03:00	62.6	62.6	62.6	90	59.6	0	0	---	0.00	30.123 
03:05	62.6	62.6	62.6	90	59.6	0	0	---	0.00	30.123 
03:10	62.6	62.6	62.6	90	59.6	0	0	---	0.00	30.123 
03:15	62.4	62.4	62.4	90	59.4	0	0	---	0.00	30.121 
03:20	62.4	62.4	62.4	90	59.4	0	0	---	0.00	30.121 
03:25	62.3	62.3	62.3	90	59.3	0	0	---	0.00	30.121 
03:30	62.3	62.3	62.3	90	59.3	0	0	---	0.00	30.122 
03:35	62.3	62.3	62.3	91	59.6	0	0	---	0.00	30.122 
03:40	62.3	62.3	62.3	91	59.6	0	0	---	0.00	30.122 
03:45	62.4	62.4	62.4	92	60.0	0	0	---	0.00	30.122 
03:50	62.4	62.4	62.4	92	60.0	0	0	---	0.00	30.122 
03:55	62.4	62.4	62.4	92	60.0	0	0	---	0.00	30.122 
04:00	62.4	62.4	62.4	92	60.0	0	0	---	0.00	30.121 
04:05	62.3	62.3	62.3	92	59.9	0	0	---	0.00	30.121 
04:10	62.3	62.3	62.3	92	59.9	0	0	---	0.00	30.121 
04:15	62.1	62.1	62.1	92	59.7	0	0	---	0.00	30.125 
04:20	62.1	62.1	62.1	93	60.0	0	0	---	0.00	30.125 
04:25	62.1	62.1	62.1	93	60.0	0	0	---	0.00	30.125 
04:30	62.0	62.0	62.0	93	59.9	0	0	---	0.00	30.127 
04:35	62.0	62.0	62.0	93	59.9	0	0	---	0.00	30.127 
04:40	62.0	62.0	62.0	93	59.9	0	0	---	0.00	30.127 
04:45	62.0	62.0	62.0	93	59.9	0	0	---	0.00	30.130 
04:50	62.0	62.0	62.0	94	60.2	0	0	---	0.00	30.130 
04:55	62.0	62.0	62.0	94	60.2	0	0	---	0.00	30.130 
05:00	62.0	62.0	62.0	94	60.2	0	0	---	0.00	30.137 
05:05	61.8	61.8	61.8	94	60.1	0	0	---	0.00	30.137 
05:10	61.6	61.6	61.6	94	59.9	0	0	---	0.00	30.137 
05:15	61.5	61.5	61.5	94	59.8	0	0	---	0.00	30.139 
05:20	61.3	61.3	61.3	94	59.6	0	0	---	0.00	30.139 
05:25	61.3	61.3	61.3	94	59.6	0	0	---	0.00	30.139 
05:30	61.2	61.2	61.2	94	59.5	0	0	---	0.00	30.140 
05:35	61.0	61.0	61.0	94	59.3	0	0	---	0.00	30.140 
05:40	61.2	61.2	61.2	94	59.5	0	0	---	0.00	30.140 
05:45	61.0	61.0	61.0	94	59.3	0	0	---	0.00	30.142 
05:50	60.9	60.9	60.9	94	59.2	0	0	---	0.00	30.142 
05:55	60.9	60.9	60.9	94	59.2	0	0	---	0.00	30.142 
06:00	60.9	60.9	60.9	94	59.2	0	0	---	0.00	30.146 
06:05	60.9	60.9	60.9	94	59.2	0	0	---	0.00	30.146 
06:10	60.9	60.9	60.9	95	59.5	0	0	---	0.00	30.146 
06:15	60.7	60.7	60.7	95	59.3	0	0	---	0.00	30.153 
06:20	60.7	60.7	60.7	95	59.3	0	0	---	0.00	30.153 
06:25	60.7	60.7	60.7	95	59.3	0	0	---	0.00	30.153 
06:30	60.5	60.5	60.5	95	59.1	0	0	---	0.00	30.157 
06:35	60.4	60.4	60.4	95	59.0	0	0	---	0.00	30.157 
06:40	60.2	60.2	60.2	95	58.8	0	0	---	0.00	30.157 
06:45	60.1	60.1	60.1	95	58.7	0	0	---	0.00	30.158 
06:50	60.1	60.1	60.1	95	58.7	0	0	---	0.00	30.158 
06:55	60.1	60.1	60.1	95	58.7	0	0	---	0.00	30.158 
07:00	59.9	59.9	59.9	95	58.5	0	0	---	0.00	30.159 
07:05	59.9	59.9	59.9	95	58.5	0	0	---	0.00	30.159 
07:10	60.1	60.1	60.1	95	58.7	0	0	---	0.00	30.159 
07:15	60.1	60.1	60.1	95	58.7	0	0	---	0.00	30.160 
07:20	60.1	60.1	60.1	95	58.7	0	0	---	0.00	30.160 
07:25	60.2	60.2	60.2	95	58.8	0	0	---	0.00	30.160 
07:30	60.5	60.5	60.5	95	59.1	0	0	---	0.00	30.159 
07:35	60.9	60.9	60.9	96	59.7	0	0	---	0.00	30.159 
07:40	61.0	61.0	61.0	96	59.8	0	0	---	0.00	30.159 
07:45	61.3	61.3	61.3	96	60.1	0	0	---	0.00	30.165 
07:50	61.8	61.8	61.8	96	60.6	0	0	---	0.00	30.165 
07:55	62.1	62.1	62.1	96	60.9	0	0	---	0.00	30.165 
08:00	62.6	62.6	62.6	96	61.4	0	0	---	0.00	30.162 
08:05	63.1	63.1	63.1	96	61.9	0	0	---	0.00	30.162 
08:10	63.7	63.7	63.7	96	62.5	0	0	---	0.00	30.162 
08:15	64.7	64.7	64.7	96	63.5	0	0	---	0.00	30.169 
08:20	65.6	65.6	65.6	95	64.1	0	0	---	0.00	30.169 
08:25	66.3	66.3	66.3	92	63.9	0	1	68	0.00	30.169 
08:30	66.9	66.9	66.9	89	63.5	0	1	68	0.00	30.169 
08:35	67.6	67.6	67.6	85	62.9	0	1	68	0.00	30.169 
08:40	68.4	68.4	68.4	83	63.0	0	1	68	0.00	30.169 
08:45	69.3	69.3	69.3	80	62.9	0	1	68	0.00	30.168 
08:50	70.1	70.1	70.1	77	62.5	0	1	68	0.00	30.168 
08:55	70.9	70.9	70.9	75	62.6	0	1	68	0.00	30.168 
09:00	71.6	71.6	71.6	73	62.5	0	1	68	0.00	30.169 
09:05	72.1	72.1	72.1	73	63.0	0	1	68	0.00	30.169 
09:10	72.5	72.5	72.5	72	62.9	0	1	68	0.00	30.169 
09:15	73.0	73.0	73.0	71	63.0	0	2	68	0.00	30.171 
09:20	73.2	73.2	73.2	72	63.6	0	2	68	0.00	30.171 
09:25	73.2	73.2	73.2	72	63.6	1	3	68	0.00	30.171 
09:30	73.2	73.2	73.2	72	63.6	0	2	68	0.00	30.169 
09:35	73.7	73.7	73.7	70	63.3	0	1	68	0.00	30.169 
09:40	74.4	74.4	74.4	70	64.0	0	1	68	0.00	30.169 
09:45	74.9	74.9	74.9	70	64.4	0	1	68	0.00	30.168 
09:50	75.3	75.3	77.2	67	63.6	0	1	68	0.00	30.168 
09:55	75.6	75.6	77.4	67	63.9	0	1	68	0.00	30.168 
10:00	76.0	76.0	77.9	65	63.4	0	1	68	0.00	30.170 
10:05	76.7	76.7	78.5	65	64.0	0	2	68	0.00	30.170 
10:10	77.4	77.4	79.2	63	63.8	0	1	68	0.00	30.170 
10:15	77.9	77.9	79.6	62	63.8	1	3	68	0.00	30.172 
10:20	77.7	77.7	79.4	62	63.6	1	2	68	0.00	30.172 
10:25	77.9	77.9	79.6	62	63.8	0	2	68	0.00	30.172 
10:30	78.5	78.5	80.1	59	63.0	0	2	68	0.00	30.173 
10:35	79.0	79.0	80.6	59	63.4	1	3	68	0.00	30.173 
10:40	79.4	79.4	80.9	57	62.8	0	1	68	0.00	30.173 
10:45	79.8	79.8	81.3	57	63.2	0	1	68	0.00	30.172 
10:50	79.9	79.9	81.4	57	63.3	0	1	68	0.00	30.172 
10:55	80.7	80.7	82.0	55	63.0	0	1	68	0.00	30.172 
11:00	81.2	81.2	82.2	52	61.9	1	2	68	0.00	30.172 
11:05	81.4	81.4	82.5	53	62.6	1	3	68	0.00	30.172 
11:10	81.4	81.4	82.4	52	62.1	0	1	68	0.00	30.172 
11:15	81.6	81.6	82.8	53	62.8	0	2	0	0.00	30.169 
11:20	82.0	82.0	83.1	52	62.6	1	3	0	0.00	30.169 
11:25	82.2	82.2	83.1	51	62.2	1	2	0	0.00	30.169 
11:30	82.4	82.4	82.9	48	60.7	0	1	0	0.00	30.170 
11:35	82.6	82.6	83.1	48	60.9	1	3	22	0.00	30.170 
11:40	83.0	83.0	83.1	45	59.4	1	4	90	0.00	30.170 
11:45	83.2	83.2	83.3	45	59.6	1	3	90	0.00	30.174 
11:50	83.6	83.6	83.4	43	58.7	1	4	270	0.00	30.174 
11:55	83.8	83.8	83.6	43	58.9	1	4	90	0.00	30.174 
12:00	84.1	84.1	84.4	46	61.1	1	2	90	0.00	30.172 
12:05	84.3	84.3	83.9	42	58.7	1	4	112	0.00	30.172 
12:10	84.3	84.3	83.8	41	58.0	1	3	112	0.00	30.172 
12:15	84.5	84.5	84.1	42	58.9	1	5	112	0.00	30.168 
12:20	84.1	84.1	83.7	42	58.5	1	5	112	0.00	30.168 
12:25	84.3	84.3	84.1	43	59.3	0	2	112	0.00	30.168 
12:30	83.6	83.6	82.9	40	56.7	0	1	112	0.00	30.169 
12:35	83.2	83.2	82.7	41	57.0	0	1	112	0.00	30.169 
12:40	82.8	82.8	82.6	43	58.0	0	1	112	0.00	30.169 
12:45	82.2	82.2	82.0	43	57.4	0	1	112	0.00	30.169 
12:50	82.2	82.2	82.1	44	58.1	0	1	112	0.00	30.169 
12:55	82.0	82.0	81.8	43	57.3	0	1	112	0.00	30.169 
13:00	82.2	82.2	82.0	43	57.4	0	2	112	0.00	30.167 
13:05	82.8	82.8	82.4	42	57.3	1	4	112	0.00	30.167 
13:10	84.0	84.0	83.4	41	57.7	0	3	90	0.00	30.167 
13:15	84.7	84.7	83.8	39	57.0	1	4	68	0.00	30.164 
13:20	85.3	85.3	84.7	40	58.2	1	3	90	0.00	30.164 
13:25	85.5	85.5	84.9	40	58.4	2	3	90	0.00	30.164 
13:30	85.5	85.5	84.5	38	57.0	1	4	112	0.00	30.156 
13:35	85.5	85.5	84.9	40	58.4	0	2	112	0.00	30.156 
13:40	85.7	85.7	84.7	38	57.1	0	2	112	0.00	30.156 
13:45	86.1	86.1	85.4	39	58.2	1	3	112	0.00	30.153 
13:50	86.3	86.3	85.2	37	56.9	1	4	90	0.00	30.153 
13:55	86.7	86.7	86.0	39	58.7	0	2	90	0.00	30.153 
14:00	87.0	87.0	86.9	41	60.4	1	5	90	0.00	30.152 
14:05	86.7	86.7	85.8	38	58.0	2	4	112	0.00	30.152 
14:10	86.7	86.7	86.7	42	60.8	1	4	112	0.00	30.152 
14:15	87.2	87.2	86.9	40	59.9	1	3	112	0.00	30.152 
14:20	87.6	87.6	87.4	40	60.3	1	5	90	0.00	30.152 
14:25	87.0	87.0	86.2	38	58.3	1	3	90	0.00	30.152 
14:30	86.1	86.1	85.4	39	58.2	1	3	270	0.00	30.153 
14:35	85.1	85.1	84.6	41	58.7	1	3	112	0.00	30.153 
14:40	84.0	84.0	84.0	44	59.7	1	2	112	0.00	30.153 
14:45	83.4	83.4	83.3	44	59.2	1	5	112	0.00	30.151 
14:50	83.2	83.2	83.3	45	59.6	1	2	112	0.00	30.151 
14:55	83.0	83.0	82.8	43	58.2	2	6	112	0.00	30.151 
15:00	82.8	82.8	82.7	44	58.6	2	6	68	0.00	30.146 
15:05	82.4	82.4	82.3	44	58.3	2	4	68	0.00	30.146 
15:10	82.8	82.8	82.7	44	58.6	1	4	68	0.00	30.146 
15:15	83.8	83.8	83.4	42	58.2	2	5	112	0.00	30.144 
15:20	84.5	84.5	84.0	41	58.2	1	4	90	0.00	30.144 
15:25	85.1	85.1	84.6	41	58.7	1	4	270	0.00	30.144 
15:30	85.7	85.7	85.7	43	60.6	2	6	90	0.00	30.141 
15:35	85.9	85.9	85.5	41	59.4	2	6	90	0.00	30.141 
15:40	86.1	86.1	85.4	39	58.2	1	3	112	0.00	30.141 
15:45	86.3	86.3	85.6	39	58.4	1	5	112	0.00	30.136 
15:50	86.3	86.3	85.8	40	59.1	2	6	90	0.00	30.136 
15:55	86.1	86.1	85.4	39	58.2	2	5	90	0.00	30.136 
16:00	86.3	86.3	86.2	42	60.5	1	3	90	0.00	30.131 
16:05	86.5	86.5	85.8	39	58.6	1	2	112	0.00	30.131 
16:10	87.0	87.0	86.2	38	58.3	1	2	112	0.00	30.131 
16:15	87.0	87.0	86.2	38	58.3	1	5	112	0.00	30.123 
16:20	86.5	86.5	85.2	36	56.3	2	4	90	0.00	30.123 
16:25	85.9	85.9	84.9	38	57.3	2	5	90	0.00	30.123 
16:30	85.7	85.7	85.3	41	59.3	0	2	90	0.00	30.122 
16:35	86.1	86.1	85.4	39	58.2	1	4	90	0.00	30.122 
16:40	86.5	86.5	85.2	36	56.3	1	5	90	0.00	30.122 
16:45	86.7	86.7	85.4	36	56.5	1	2	112	0.00	30.123 
16:50	87.2	87.2	86.2	37	57.7	0	3	112	0.00	30.123 
16:55	87.4	87.4	86.2	36	57.1	0	2	112	0.00	30.123 
17:00	87.4	87.4	86.0	35	56.3	1	3	112	0.00	30.122 
17:05	87.4	87.4	86.0	35	56.3	0	2	135	0.00	30.122 
17:10	87.4	87.4	86.0	35	56.3	1	3	135	0.00	30.122 
17:15	87.2	87.2	85.6	34	55.4	1	2	135	0.00	30.117 
17:20	87.4	87.4	86.4	37	57.9	1	3	112	0.00	30.117 
17:25	87.2	87.2	86.0	36	57.0	1	4	112	0.00	30.117 
17:30	87.2	87.2	86.0	36	57.0	0	3	135	0.00	30.116 
17:35	87.2	87.2	85.2	32	53.7	0	2	135	0.00	30.116 
17:40	86.7	86.7	84.7	32	53.3	0	1	180	0.00	30.116 
17:45	86.7	86.7	85.1	34	54.9	1	3	158	0.00	30.114 
17:50	86.5	86.5	85.0	35	55.6	1	4	112	0.00	30.114 
17:55	85.7	85.7	84.7	38	57.1	1	2	112	0.00	30.114 
18:00	84.9	84.9	83.9	38	56.4	0	2	112	0.00	30.118 
18:05	84.1	84.1	83.4	40	57.1	0	1	112	0.00	30.118 
18:10	83.8	83.8	83.2	41	57.6	0	2	112	0.00	30.118 
18:15	83.6	83.6	83.0	41	57.4	1	3	112	0.00	30.117 
18:20	83.6	83.6	83.4	43	58.7	1	4	112	0.00	30.117 
18:25	83.8	83.8	83.4	42	58.2	1	3	135	0.00	30.117 
18:30	83.8	83.8	83.1	40	56.9	0	2	135	0.00	30.110 
18:35	83.8	83.8	83.1	40	56.9	0	2	135	0.00	30.110 
18:40	83.8	83.8	83.1	40	56.9	1	2	135	0.00	30.110 
18:45	83.6	83.6	82.9	40	56.7	0	3	135	0.00	30.111 
18:50	83.6	83.6	82.9	40	56.7	0	1	135	0.00	30.111 
18:55	83.6	83.6	83.0	41	57.4	0	2	135	0.00	30.111 
19:00	83.4	83.4	82.7	40	56.5	0	1	135	0.00	30.112 
19:05	83.4	83.4	82.9	41	57.2	0	2	135	0.00	30.112 
19:10	83.4	83.4	82.9	41	57.2	0	2	135	0.00	30.112 
19:15	83.2	83.2	82.8	42	57.7	0	1	135	0.00	30.107 
19:20	83.0	83.0	82.6	42	57.5	0	2	135	0.00	30.107 
19:25	82.8	82.8	82.4	42	57.3	0	2	135	0.00	30.107 
19:30	82.8	82.8	82.6	43	58.0	0	1	135	0.00	30.105 
19:35	82.6	82.6	82.5	44	58.4	0	1	135	0.00	30.105 
19:40	82.4	82.4	82.3	44	58.3	0	1	135	0.00	30.105 
19:45	82.2	82.2	82.3	45	58.7	0	1	135	0.00	30.109 
19:50	81.8	81.8	82.0	46	59.0	0	1	135	0.00	30.109 
19:55	81.6	81.6	81.9	47	59.4	0	1	135	0.00	30.109 
20:00	81.4	81.4	81.9	48	59.8	0	0	---	0.00	30.107 
20:05	81.1	81.1	81.7	49	60.1	0	1	135	0.00	30.107 
20:10	80.9	80.9	81.6	50	60.5	0	0	---	0.00	30.107 
20:15	80.7	80.7	81.4	50	60.3	0	0	---	0.00	30.102 
20:20	80.3	80.3	81.3	52	61.0	0	0	---	0.00	30.102 
20:25	79.8	79.8	80.8	52	60.6	0	0	---	0.00	30.102 
20:30	79.2	79.2	80.4	53	60.6	0	0	---	0.00	30.104 
20:35	78.6	78.6	79.9	54	60.5	0	0	---	0.00	30.104 
20:40	78.1	78.1	79.5	55	60.6	0	0	---	0.00	30.104 
20:45	77.7	77.7	79.3	56	60.7	0	0	---	0.00	30.101 
20:50	77.2	77.2	78.9	56	60.3	0	0	---	0.00	30.101 
20:55	76.7	76.7	78.5	58	60.8	0	0	---	0.00	30.101 
21:00	76.1	76.1	78.1	59	60.7	0	0	---	0.00	30.100 
21:05	75.8	75.8	77.9	60	60.9	0	0	---	0.00	30.100 
21:10	75.3	75.3	77.5	61	60.9	0	0	---	0.00	30.100 
21:15	74.9	74.9	74.9	62	61.0	0	0	---	0.00	30.095 
21:20	74.4	74.4	74.4	64	61.4	0	0	---	0.00	30.095 
21:25	74.0	74.0	74.0	65	61.5	0	0	---	0.00	30.095 
21:30	73.7	73.7	73.7	65	61.2	0	0	---	0.00	30.099 
21:35	73.5	73.5	73.5	65	61.0	0	0	---	0.00	30.099 
21:40	73.2	73.2	73.2	66	61.1	0	0	---	0.00	30.099 
21:45	72.8	72.8	72.8	68	61.6	0	0	---	0.00	30.101 
21:50	72.5	72.5	72.5	69	61.7	0	0	---	0.00	30.101 
21:55	72.1	72.1	72.1	69	61.4	0	0	---	0.00	30.101 
22:00	71.8	71.8	71.8	70	61.5	0	0	---	0.00	30.102 
22:05	71.6	71.6	71.6	71	61.7	0	0	---	0.00	30.102 
22:10	71.5	71.5	71.5	71	61.6	0	0	---	0.00	30.102 
22:15	71.1	71.1	71.1	72	61.6	0	0	---	0.00	30.099 
22:20	70.8	70.8	70.8	73	61.7	0	0	---	0.00	30.099 
22:25	70.6	70.6	70.6	73	61.5	0	0	---	0.00	30.099 
22:30	70.3	70.3	70.3	74	61.6	0	0	---	0.00	30.103 
22:35	70.1	70.1	70.1	75	61.8	0	0	---	0.00	30.103 
22:40	69.9	69.9	69.9	76	62.0	0	0	---	0.00	30.103 
22:45	69.8	69.8	69.8	77	62.3	0	0	---	0.00	30.102 
22:50	69.6	69.6	69.6	77	62.1	0	0	---	0.00	30.102 
22:55	69.4	69.4	69.4	78	62.2	0	0	---	0.00	30.102 
23:00	69.3	69.3	69.3	78	62.1	0	0	---	0.00	30.101 
23:05	69.1	69.1	69.1	79	62.3	0	0	---	0.00	30.101 
23:10	68.9	68.9	68.9	79	62.1	0	0	---	0.00	30.101 
23:15	68.8	68.8	68.8	80	62.4	0	0	---	0.00	30.096 
23:20	68.6	68.6	68.6	81	62.5	0	0	---	0.00	30.096 
23:25	68.4	68.4	68.4	81	62.3	0	0	---	0.00	30.096 
23:30	68.3	68.3	68.3	81	62.2	0	0	---	0.00	30.097 
23:35	68.1	68.1	68.1	81	62.0	0	0	---	0.00	30.097 
23:40	67.9	67.9	67.9	82	62.2	0	0	---	0.00	30.097 
23:45	67.8	67.8	67.8	83	62.4	0	0	---	0.00	30.096 
23:50	67.6	67.6	67.6	83	62.2	0	0	---	0.00	30.096 
23:55	67.4	67.4	67.4	84	62.4	0	0	---	0.00	30.096 

CoCoRaHS
IN-AL-39
A2 Web Hosting
Creative Commons License
GoDaddy
search engine by freefind advanced

loaded 2018-11-18 11:06:50 • last modified 2010-11-18 10:43:29
Privacy PolicyDisclaimer
• wx.awcolley.com is powered by PmWiki v.2002016 •
• all content (unless otherwise noted) © 2018 A W Colley